Time;durP1;ratioP1;P1;durP2;ratioP2;P2;SDS_P1;SDS_P2;PMS_P1;PMS_P2;Temp;Humidity;BMP_temperature;BMP_pressure;BME280_temperature;BME280_humidity;BME280_pressure;Samples;Min_cycle;Max_cycle;Signal;HPM_P1;HPM_P2
2023/05/03 00:01:11;;;;;;;4.45;4.05;;;11.30;99.90;;;;;;6141189;23;20573;-73
2023/05/03 00:03:38;;;;;;;5.38;4.88;;;11.40;99.90;;;;;;6142889;23;20274;-73
2023/05/03 00:06:12;;;;;;;5.20;4.60;;;11.30;99.90;;;;;;6143411;23;20269;-73
2023/05/03 00:08:40;;;;;;;5.28;4.18;;;11.30;99.90;;;;;;6145212;23;20294;-73
2023/05/03 00:11:07;;;;;;;5.40;4.47;;;11.30;99.90;;;;;;6147396;23;20205;-73
2023/05/03 00:13:34;;;;;;;5.00;4.60;;;11.30;99.90;;;;;;6142454;23;20190;-73
2023/05/03 00:16:03;;;;;;;4.85;4.40;;;11.30;99.90;;;;;;6144836;23;20189;-74
2023/05/03 00:18:30;;;;;;;5.10;4.60;;;11.20;99.90;;;;;;6143320;23;20268;-73
2023/05/03 00:20:58;;;;;;;5.22;4.72;;;11.20;99.90;;;;;;6145435;23;20575;-74
2023/05/03 00:23:27;;;;;;;6.82;5.30;;;11.20;99.90;;;;;;6135042;23;20282;-74
2023/05/03 00:25:54;;;;;;;5.22;4.72;;;11.10;99.90;;;;;;6145480;23;20212;-73
2023/05/03 00:28:21;;;;;;;5.38;4.85;;;11.10;99.90;;;;;;6141272;23;20214;-73
2023/05/03 00:30:49;;;;;;;4.68;4.25;;;11.10;99.90;;;;;;6144597;23;20191;-73
2023/05/03 00:33:17;;;;;;;4.90;4.50;;;11.00;99.90;;;;;;6143925;23;20270;-73
2023/05/03 00:35:44;;;;;;;6.00;5.50;;;11.00;99.90;;;;;;6145391;23;20655;-73
2023/05/03 00:38:13;;;;;;;5.65;4.90;;;11.00;99.90;;;;;;6145465;23;20651;-73
2023/05/03 00:40:40;;;;;;;4.95;4.55;;;10.90;99.90;;;;;;6144795;23;20191;-73
2023/05/03 00:43:07;;;;;;;5.38;4.88;;;10.90;99.90;;;;;;6147037;23;20191;-74
2023/05/03 00:45:34;;;;;;;5.20;4.78;;;10.90;99.90;;;;;;6147044;23;20644;-73
2023/05/03 00:48:01;;;;;;;5.32;4.85;;;10.80;99.90;;;;;;6143054;23;20183;-73
2023/05/03 00:50:30;;;;;;;5.70;5.25;;;10.80;99.90;;;;;;6145961;23;20221;-73
2023/05/03 00:52:58;;;;;;;6.03;5.50;;;10.80;99.90;;;;;;6142719;23;20187;-73
2023/05/03 00:55:28;;;;;;;5.10;4.70;;;10.70;99.90;;;;;;6146789;23;20222;-73
2023/05/03 00:57:56;;;;;;;6.25;5.65;;;10.70;99.90;;;;;;6135428;23;20190;-73
2023/05/03 01:00:24;;;;;;;6.47;5.60;;;10.70;99.90;;;;;;6147907;23;20269;-73
2023/05/03 01:02:52;;;;;;;5.43;4.93;;;10.60;99.90;;;;;;6143508;23;20267;-73
2023/05/03 01:05:21;;;;;;;6.20;5.40;;;10.60;99.90;;;;;;6140830;23;20269;-73
2023/05/03 01:08:00;;;;;;;6.30;5.70;;;10.60;99.90;;;;;;6145366;23;20278;-73
2023/05/03 01:10:33;;;;;;;6.50;5.43;;;10.50;99.90;;;;;;6143898;23;20214;-73
2023/05/03 01:13:10;;;;;;;5.95;5.45;;;10.50;99.90;;;;;;6138582;23;20776;-73
2023/05/03 01:15:50;;;;;;;5.80;5.20;;;10.50;99.90;;;;;;6144956;23;20415;-73
2023/05/03 01:18:21;;;;;;;6.38;5.75;;;10.50;99.90;;;;;;6151189;23;20610;-73
2023/05/03 01:20:50;;;;;;;7.30;6.53;;;10.40;99.90;;;;;;6145633;23;20183;-73
2023/05/03 01:23:30;;;;;;;8.60;5.55;;;10.40;99.90;;;;;;6146400;23;20259;-73
2023/05/03 01:25:58;;;;;;;6.60;5.43;;;10.30;99.90;;;;;;6146160;23;20186;-73
2023/05/03 01:28:25;;;;;;;6.40;5.80;;;10.30;99.90;;;;;;6145916;23;20717;-73
2023/05/03 01:30:54;;;;;;;5.70;5.20;;;10.30;99.90;;;;;;6145595;23;20228;-73
2023/05/03 01:33:30;;;;;;;5.55;5.10;;;10.30;99.90;;;;;;6146480;23;20194;-73
2023/05/03 01:36:02;;;;;;;6.05;5.55;;;10.30;99.90;;;;;;6146763;23;20186;-73
2023/05/03 01:38:33;;;;;;;6.43;5.70;;;10.30;99.90;;;;;;6147229;23;20207;-73
2023/05/03 01:41:05;;;;;;;6.75;6.20;;;10.30;99.90;;;;;;6149033;23;20650;-73
2023/05/03 01:43:35;;;;;;;6.72;6.03;;;10.30;99.90;;;;;;6140657;23;20191;-73
2023/05/03 01:46:02;;;;;;;6.00;5.47;;;10.30;99.90;;;;;;6141981;23;20269;-73
2023/05/03 01:48:29;;;;;;;7.13;6.43;;;10.30;99.90;;;;;;6147225;23;20313;-73
2023/05/03 01:50:56;;;;;;;6.15;5.65;;;10.30;99.90;;;;;;6147715;23;20221;-73
2023/05/03 01:53:23;;;;;;;6.07;5.50;;;10.30;99.90;;;;;;6143194;23;20506;-73
2023/05/03 01:55:50;;;;;;;6.35;5.65;;;10.30;99.90;;;;;;6146309;23;20281;-73
2023/05/03 01:58:18;;;;;;;6.57;5.90;;;10.30;99.90;;;;;;6146716;23;20234;-73
2023/05/03 02:00:46;;;;;;;6.30;5.70;;;10.30;99.90;;;;;;6145717;23;20551;-73
2023/05/03 02:03:13;;;;;;;6.30;5.75;;;10.30;99.90;;;;;;6147484;23;20538;-73
2023/05/03 02:05:40;;;;;;;7.10;6.40;;;10.30;99.90;;;;;;6142716;23;20179;-73
2023/05/03 02:08:07;;;;;;;6.45;5.85;;;10.30;99.90;;;;;;6146571;23;20682;-73
2023/05/03 02:10:35;;;;;;;7.50;6.55;;;10.30;99.90;;;;;;6141885;23;20229;-73
2023/05/03 02:13:02;;;;;;;7.70;7.00;;;10.30;99.90;;;;;;6145928;23;20191;-73
2023/05/03 02:15:31;;;;;;;7.10;6.50;;;10.20;99.90;;;;;;6145882;23;20193;-73
2023/05/03 02:18:01;;;;;;;8.02;6.68;;;10.20;99.90;;;;;;6145566;23;20696;-73
2023/05/03 02:20:31;;;;;;;7.70;7.00;;;10.10;99.90;;;;;;6137280;23;20196;-73
2023/05/03 02:22:58;;;;;;;8.98;6.88;;;10.10;99.90;;;;;;6148605;23;20539;-73
2023/05/03 02:25:25;;;;;;;7.95;6.85;;;10.10;99.90;;;;;;6140124;23;20537;-73
2023/05/03 02:27:52;;;;;;;8.10;7.18;;;10.10;99.90;;;;;;6145516;23;20221;-73
2023/05/03 02:30:19;;;;;;;8.27;7.57;;;10.10;99.90;;;;;;6140980;23;20253;-73
2023/05/03 02:32:47;;;;;;;7.60;6.90;;;10.00;99.90;;;;;;6147518;23;20252;-73
2023/05/03 02:35:14;;;;;;;7.75;7.05;;;10.00;99.90;;;;;;6148673;23;20266;-73
2023/05/03 02:37:41;;;;;;;8.20;7.50;;;10.00;99.90;;;;;;6147135;23;20243;-73
2023/05/03 02:40:09;;;;;;;8.63;7.70;;;9.90;99.90;;;;;;6148285;23;20694;-73
2023/05/03 02:42:36;;;;;;;7.85;7.15;;;9.90;99.90;;;;;;6146121;23;20528;-73
2023/05/03 02:45:04;;;;;;;7.75;7.05;;;9.90;99.90;;;;;;6143578;23;20194;-73
2023/05/03 02:47:31;;;;;;;7.97;7.28;;;9.90;99.90;;;;;;6147343;23;20187;-73
2023/05/03 02:49:59;;;;;;;7.90;7.10;;;9.80;99.90;;;;;;6146435;23;20709;-73
2023/05/03 02:52:26;;;;;;;8.18;7.47;;;9.80;99.90;;;;;;6149550;23;20193;-73
2023/05/03 02:54:53;;;;;;;8.65;7.78;;;9.70;99.90;;;;;;6148039;23;20187;-73
2023/05/03 02:57:20;;;;;;;9.57;7.60;;;9.70;99.90;;;;;;6144186;23;20350;-73
2023/05/03 02:59:48;;;;;;;8.02;7.32;;;9.70;99.90;;;;;;6144557;23;20260;-73
2023/05/03 03:02:15;;;;;;;8.20;7.38;;;9.70;99.90;;;;;;6147173;23;20611;-73
2023/05/03 03:04:41;;;;;;;8.55;7.70;;;9.70;99.90;;;;;;6147833;23;20194;-73
2023/05/03 03:07:10;;;;;;;9.15;8.25;;;9.60;99.90;;;;;;6142986;23;20194;-73
2023/05/03 03:09:37;;;;;;;7.75;7.05;;;9.60;99.90;;;;;;6147829;23;20562;-73
2023/05/03 03:12:04;;;;;;;8.82;7.88;;;9.50;99.90;;;;;;6144670;23;20230;-73
2023/05/03 03:14:32;;;;;;;9.43;8.13;;;9.50;99.90;;;;;;6144581;23;20194;-73
2023/05/03 03:17:00;;;;;;;8.48;7.70;;;9.40;99.90;;;;;;6143263;23;20205;-73
2023/05/03 03:19:27;;;;;;;9.88;8.18;;;9.40;99.90;;;;;;6145319;23;20313;-73
2023/05/03 03:21:54;;;;;;;9.85;8.65;;;9.40;99.90;;;;;;6150924;23;20194;-73
2023/05/03 03:24:22;;;;;;;8.57;7.60;;;9.30;99.90;;;;;;6144513;23;20285;-73
2023/05/03 03:26:49;;;;;;;9.73;8.60;;;9.50;99.90;;;;;;6147574;23;20662;-73
2023/05/03 03:29:17;;;;;;;10.45;9.27;;;9.20;99.90;;;;;;6136333;23;20724;-73
2023/05/03 03:31:44;;;;;;;9.65;8.27;;;9.20;99.90;;;;;;6141531;23;20245;-73
2023/05/03 03:34:12;;;;;;;9.43;8.50;;;9.10;99.90;;;;;;6145392;23;20190;-73
2023/05/03 03:36:39;;;;;;;8.65;7.82;;;9.10;99.90;;;;;;6150651;23;20591;-73
2023/05/03 03:39:06;;;;;;;9.50;8.57;;;9.10;99.90;;;;;;6140138;23;20595;-75
2023/05/03 03:41:34;;;;;;;8.90;8.00;;;9.00;99.90;;;;;;6142454;23;20214;-74
2023/05/03 03:44:02;;;;;;;10.00;8.43;;;9.00;99.90;;;;;;6144414;23;20727;-74
2023/05/03 03:46:29;;;;;;;11.02;8.85;;;9.00;99.90;;;;;;6142756;23;20191;-74
2023/05/03 03:48:56;;;;;;;10.20;9.10;;;9.00;99.90;;;;;;6141213;23;20247;-73
2023/05/03 03:51:23;;;;;;;9.30;8.20;;;8.90;99.90;;;;;;6138926;23;20562;-74
2023/05/03 03:53:50;;;;;;;10.90;9.15;;;8.90;99.90;;;;;;6138913;23;20890;-74
2023/05/03 03:56:17;;;;;;;9.75;8.65;;;8.90;99.90;;;;;;6141812;23;20871;-74
2023/05/03 03:58:45;;;;;;;10.90;9.80;;;8.80;99.90;;;;;;6145363;23;20211;-74
2023/05/03 04:01:12;;;;;;;11.13;9.70;;;8.80;99.90;;;;;;6149683;23;20194;-75
2023/05/03 04:03:40;;;;;;;10.35;9.27;;;8.80;99.90;;;;;;6146055;23;20213;-74
2023/05/03 04:06:07;;;;;;;12.10;9.73;;;8.80;99.90;;;;;;6143311;23;20249;-74
2023/05/03 04:08:34;;;;;;;10.93;9.77;;;8.70;99.90;;;;;;6145952;23;20213;-73
2023/05/03 04:11:02;;;;;;;10.98;9.88;;;8.70;99.90;;;;;;6143945;23;20221;-82
2023/05/03 04:13:29;;;;;;;12.52;10.10;;;8.70;99.90;;;;;;6139968;23;20283;-82
2023/05/03 04:16:00;;;;;;;11.82;9.85;;;9.00;99.90;;;;;;6148520;23;20863;-86
2023/05/03 04:18:27;;;;;;;11.27;9.48;;;8.70;99.90;;;;;;6139165;23;20214;-86
2023/05/03 04:20:54;;;;;;;10.25;9.35;;;8.70;99.90;;;;;;6144547;23;20214;-75
2023/05/03 04:23:21;;;;;;;10.43;9.43;;;8.70;99.90;;;;;;6146806;23;20255;-75
2023/05/03 04:25:48;;;;;;;10.07;9.05;;;8.80;99.90;;;;;;6133294;23;20275;-74
2023/05/03 04:28:15;;;;;;;10.95;9.85;;;8.70;99.90;;;;;;6150969;23;20689;-74
2023/05/03 04:30:43;;;;;;;10.85;9.38;;;8.70;99.90;;;;;;6147217;23;20218;-74
2023/05/03 04:33:12;;;;;;;11.70;9.57;;;8.70;99.90;;;;;;6147202;23;20205;-74
2023/05/03 04:35:40;;;;;;;10.98;9.77;;;8.70;99.90;;;;;;6151587;23;20254;-74
2023/05/03 04:38:07;;;;;;;11.70;9.02;;;8.70;99.90;;;;;;6143832;23;20233;-74
2023/05/03 04:40:34;;;;;;;13.65;10.00;;;8.70;99.90;;;;;;6136669;23;20269;-74
2023/05/03 04:43:02;;;;;;;9.80;8.88;;;9.00;99.90;;;;;;6129478;23;20661;-73
2023/05/03 04:45:30;;;;;;;11.85;10.57;;;8.80;99.90;;;;;;6145188;23;20180;-72
2023/05/03 04:47:57;;;;;;;11.45;10.25;;;8.80;99.90;;;;;;6135342;23;20206;-74
2023/05/03 04:50:25;;;;;;;10.75;9.65;;;8.80;99.90;;;;;;6127066;23;20214;-74
2023/05/03 04:52:52;;;;;;;11.00;9.77;;;8.80;99.90;;;;;;6123037;23;20262;-74
2023/05/03 04:55:20;;;;;;;13.57;10.30;;;8.80;99.90;;;;;;6141984;23;20186;-75
2023/05/03 04:57:47;;;;;;;13.77;10.00;;;8.80;99.90;;;;;;6141371;23;20241;-74
2023/05/03 05:00:15;;;;;;;12.57;10.30;;;8.80;99.90;;;;;;6143444;23;20194;-75
2023/05/03 05:02:42;;;;;;;11.80;9.73;;;8.80;99.90;;;;;;6144179;23;20788;-75
2023/05/03 05:05:11;;;;;;;11.15;10.05;;;8.80;99.90;;;;;;6132938;23;20190;-75
2023/05/03 05:07:39;;;;;;;11.13;9.98;;;8.90;99.90;;;;;;6140665;23;20207;-75
2023/05/03 05:10:08;;;;;;;10.90;9.80;;;8.90;99.90;;;;;;6136397;23;20225;-75
2023/05/03 05:12:35;;;;;;;12.05;10.32;;;9.00;99.90;;;;;;6146800;23;20186;-75
2023/05/03 05:15:03;;;;;;;11.02;10.00;;;9.00;99.90;;;;;;6146365;23;20264;-75
2023/05/03 05:17:29;;;;;;;10.85;9.65;;;9.00;99.90;;;;;;6145745;23;20183;-75
2023/05/03 05:19:57;;;;;;;10.95;9.85;;;9.10;99.90;;;;;;6146238;23;20194;-75
2023/05/03 05:22:23;;;;;;;12.80;9.98;;;9.10;99.90;;;;;;6141970;23;20635;-75
2023/05/03 05:24:52;;;;;;;11.48;10.45;;;9.10;99.90;;;;;;6141016;23;20271;-75
2023/05/03 05:27:19;;;;;;;14.07;10.13;;;9.20;99.90;;;;;;6146935;23;20250;-75
2023/05/03 05:29:46;;;;;;;11.10;9.98;;;9.30;99.90;;;;;;6148491;23;20270;-76
2023/05/03 05:32:13;;;;;;;11.15;10.13;;;9.30;99.90;;;;;;6146597;23;20187;-74
2023/05/03 05:34:41;;;;;;;11.05;9.95;;;9.70;99.90;;;;;;6144000;23;20184;-75
2023/05/03 05:37:08;;;;;;;11.55;10.38;;;9.50;99.90;;;;;;6137917;23;20187;-75
2023/05/03 05:39:35;;;;;;;11.52;9.32;;;9.60;99.90;;;;;;6139926;23;20203;-75
2023/05/03 05:42:04;;;;;;;11.27;10.05;;;9.70;99.90;;;;;;6146051;23;20198;-75
2023/05/03 05:44:31;;;;;;;12.02;10.93;;;9.70;99.90;;;;;;6138689;23;20183;-75
2023/05/03 05:46:58;;;;;;;12.15;10.85;;;9.80;99.90;;;;;;6142654;23;20182;-75
2023/05/03 05:49:25;;;;;;;11.43;10.23;;;9.80;99.90;;;;;;6145879;23;20210;-75
2023/05/03 05:51:52;;;;;;;10.95;9.10;;;9.90;99.90;;;;;;6143208;23;20292;-75
2023/05/03 05:54:19;;;;;;;12.25;10.63;;;10.00;99.90;;;;;;6150774;23;20215;-75
2023/05/03 05:56:46;;;;;;;11.55;10.35;;;10.00;99.90;;;;;;6143348;23;20229;-75
2023/05/03 05:59:15;;;;;;;12.40;11.10;;;10.10;99.90;;;;;;6142438;23;20293;-75
2023/05/03 06:01:45;;;;;;;12.57;10.93;;;10.20;99.90;;;;;;6145044;23;20175;-75
2023/05/03 06:04:12;;;;;;;12.05;10.80;;;10.20;99.90;;;;;;6146114;23;20572;-75
2023/05/03 06:06:39;;;;;;;11.32;10.23;;;10.30;99.90;;;;;;6146469;23;20194;-75
2023/05/03 06:09:07;;;;;;;11.32;10.23;;;10.40;99.90;;;;;;6145484;23;20211;-75
2023/05/03 06:11:34;;;;;;;11.00;9.93;;;10.40;99.90;;;;;;6140433;23;20211;-75
2023/05/03 06:14:02;;;;;;;12.65;11.35;;;10.40;99.90;;;;;;6143996;23;20186;-75
2023/05/03 06:16:31;;;;;;;11.93;10.75;;;10.60;99.90;;;;;;6142166;23;20253;-75
2023/05/03 06:18:58;;;;;;;11.52;10.43;;;10.60;99.90;;;;;;6145637;23;20203;-75
2023/05/03 06:21:25;;;;;;;11.43;10.23;;;10.70;99.90;;;;;;6138121;23;20190;-75
2023/05/03 06:23:52;;;;;;;12.73;10.57;;;10.80;99.90;;;;;;6148000;23;20194;-75
2023/05/03 06:26:19;;;;;;;11.85;10.65;;;10.90;99.90;;;;;;6145305;23;20535;-75
2023/05/03 06:28:46;;;;;;;11.25;10.15;;;11.00;99.90;;;;;;6141784;23;20210;-75
2023/05/03 06:31:13;;;;;;;12.02;10.68;;;11.10;99.90;;;;;;6141350;23;20210;-76
2023/05/03 06:33:42;;;;;;;10.88;9.77;;;11.30;99.90;;;;;;6136105;23;20186;-76
2023/05/03 06:36:09;;;;;;;10.93;9.80;;;11.40;99.90;;;;;;6146304;23;20541;-76
2023/05/03 06:38:36;;;;;;;11.60;10.40;;;11.50;99.90;;;;;;6146687;23;20220;-75
2023/05/03 06:41:03;;;;;;;11.80;10.60;;;11.60;99.90;;;;;;6141039;23;20278;-74
2023/05/03 06:43:30;;;;;;;12.23;9.80;;;11.70;99.90;;;;;;6147613;23;20190;-75
2023/05/03 06:45:57;;;;;;;11.43;10.25;;;11.70;99.90;;;;;;6142324;23;20182;-75
2023/05/03 06:48:25;;;;;;;11.20;9.77;;;11.80;99.90;;;;;;6141878;23;20298;-75
2023/05/03 06:50:54;;;;;;;10.80;9.70;;;11.90;99.90;;;;;;6142385;23;20813;-76
2023/05/03 06:53:21;;;;;;;12.40;9.87;;;12.10;99.90;;;;;;6147928;23;20516;-76
2023/05/03 06:55:48;;;;;;;11.30;9.60;;;12.20;99.90;;;;;;6146044;23;20836;-76
2023/05/03 06:58:15;;;;;;;11.97;10.77;;;12.20;99.90;;;;;;6146304;23;20963;-76
2023/05/03 07:00:42;;;;;;;10.87;9.73;;;12.20;99.90;;;;;;6156923;23;20447;-76
2023/05/03 07:03:09;;;;;;;10.40;9.40;;;12.30;99.90;;;;;;6145522;23;21213;-73
2023/05/03 07:05:36;;;;;;;10.20;9.30;;;12.40;99.90;;;;;;6146999;23;20426;-77
2023/05/03 07:08:05;;;;;;;10.00;9.10;;;12.40;99.90;;;;;;6140972;23;20456;-77
2023/05/03 07:10:32;;;;;;;10.97;9.87;;;12.50;99.90;;;;;;6146473;23;20460;-74
2023/05/03 07:12:59;;;;;;;11.00;10.07;;;12.80;99.90;;;;;;6146993;23;20935;-75
2023/05/03 07:15:26;;;;;;;10.40;9.50;;;13.00;99.90;;;;;;6147555;23;20426;-75
2023/05/03 07:17:53;;;;;;;11.43;9.53;;;13.00;99.90;;;;;;6147545;23;20965;-76
2023/05/03 07:20:20;;;;;;;10.30;9.40;;;13.10;99.90;;;;;;6147893;23;20787;-75
2023/05/03 07:22:47;;;;;;;11.20;10.27;;;13.10;99.90;;;;;;6145903;23;20442;-75
2023/05/03 07:25:16;;;;;;;10.73;9.73;;;13.20;99.90;;;;;;6145447;23;20431;-75
2023/05/03 07:27:44;;;;;;;10.70;9.67;;;13.20;99.90;;;;;;6148213;23;20460;-75
2023/05/03 07:30:11;;;;;;;9.80;8.93;;;13.40;99.90;;;;;;6147736;23;20432;-75
2023/05/03 07:32:38;;;;;;;10.00;9.10;;;13.50;99.90;;;;;;6144399;23;20444;-75
2023/05/03 07:35:06;;;;;;;10.77;8.70;;;13.70;99.90;;;;;;6147325;23;20515;-75
2023/05/03 07:37:33;;;;;;;10.67;9.73;;;14.10;99.90;;;;;;6144137;23;20815;-75
2023/05/03 07:40:00;;;;;;;9.60;8.70;;;14.30;99.90;;;;;;6143694;23;20527;-75
2023/05/03 07:42:29;;;;;;;10.63;9.63;;;14.50;99.90;;;;;;6143435;23;20437;-75
2023/05/03 07:44:55;;;;;;;11.10;10.10;;;14.50;99.90;;;;;;6141183;23;20460;-75
2023/05/03 07:47:23;;;;;;;14.43;11.27;;;14.00;99.90;;;;;;6147882;23;20452;-74
2023/05/03 07:49:50;;;;;;;15.03;9.73;;;13.80;99.90;;;;;;6146069;23;20434;-75
2023/05/03 07:52:17;;;;;;;9.70;8.70;;;13.90;99.90;;;;;;6141852;23;20464;-75
2023/05/03 07:54:45;;;;;;;10.60;9.60;;;14.30;99.90;;;;;;6142968;23;21012;-74
2023/05/03 07:57:13;;;;;;;10.53;9.63;;;14.60;99.90;;;;;;6147296;23;20448;-75
2023/05/03 07:59:42;;;;;;;10.30;9.27;;;14.80;99.90;;;;;;6144533;23;20436;-75
2023/05/03 08:02:09;;;;;;;9.60;8.70;;;15.20;99.90;;;;;;6137515;23;20516;-75
2023/05/03 08:04:36;;;;;;;8.90;8.20;;;15.70;99.90;;;;;;6141681;23;20421;-76
2023/05/03 08:07:03;;;;;;;9.80;8.93;;;16.10;99.90;;;;;;6141979;23;20429;-76
2023/05/03 08:09:31;;;;;;;9.20;8.40;;;16.60;99.90;;;;;;6137917;23;20443;-76
2023/05/03 08:11:57;;;;;;;9.87;8.97;;;17.00;99.90;;;;;;6145149;23;20967;-76
2023/05/03 08:14:24;;;;;;;9.80;8.90;;;17.30;99.90;;;;;;6145953;23;20563;-76
2023/05/03 08:16:53;;;;;;;10.00;9.10;;;17.50;99.90;;;;;;6147093;23;20524;-76
2023/05/03 08:19:20;;;;;;;9.20;8.30;;;17.60;99.90;;;;;;6146610;23;20780;-76
2023/05/03 08:21:47;;;;;;;10.00;9.07;;;18.00;99.90;;;;;;6145846;23;20428;-76
2023/05/03 08:24:14;;;;;;;8.47;7.77;;;18.30;99.90;;;;;;6143158;23;20879;-76
2023/05/03 08:26:42;;;;;;;9.57;8.77;;;18.40;99.90;;;;;;6145119;23;20439;-76
2023/05/03 08:29:09;;;;;;;9.80;9.10;;;18.50;99.90;;;;;;6148714;23;20965;-76
2023/05/03 08:31:36;;;;;;;10.70;9.80;;;18.60;99.90;;;;;;6147940;23;20564;-75
2023/05/03 08:34:06;;;;;;;10.00;9.20;;;18.60;99.90;;;;;;6142350;23;20462;-76
2023/05/03 08:36:34;;;;;;;9.37;8.67;;;18.50;99.90;;;;;;6148685;23;20434;-76
2023/05/03 08:39:02;;;;;;;10.10;9.20;;;18.40;99.90;;;;;;6142767;23;20957;-77
2023/05/03 08:41:31;;;;;;;10.67;9.67;;;18.20;99.90;;;;;;6148366;23;20429;-74
2023/05/03 08:43:59;;;;;;;10.37;9.33;;;17.90;99.90;;;;;;6142108;23;21137;-74
2023/05/03 08:46:28;;;;;;;9.83;9.07;;;17.70;99.90;;;;;;6141817;23;20515;-74
2023/05/03 08:48:55;;;;;;;11.63;9.97;;;17.10;99.90;;;;;;6144938;23;20462;-75
2023/05/03 08:51:26;;;;;;;10.53;9.60;;;17.50;99.90;;;;;;6146127;23;20464;-75
2023/05/03 08:53:53;;;;;;;10.77;9.77;;;17.80;99.90;;;;;;6144233;23;20436;-75
2023/05/03 08:56:28;;;;;;;14.33;9.97;;;18.10;99.90;;;;;;6143074;23;20806;-75
2023/05/03 08:58:57;;;;;;;10.77;9.77;;;18.40;99.90;;;;;;6146359;23;20548;-75
2023/05/03 09:01:23;;;;;;;10.20;9.30;;;18.40;99.90;;;;;;6145534;23;21002;-75
2023/05/03 09:03:51;;;;;;;9.93;9.13;;;18.40;99.90;;;;;;6145062;23;20533;-75
2023/05/03 09:06:20;;;;;;;11.50;10.40;;;18.20;99.90;;;;;;6144749;23;20443;-76
2023/05/03 09:08:49;;;;;;;8.93;8.13;;;18.40;99.90;;;;;;6147097;23;20478;-75
2023/05/03 09:11:23;;;;;;;10.57;9.70;;;18.30;99.90;;;;;;6143917;23;20467;-75
2023/05/03 09:13:51;;;;;;;10.60;9.80;;;18.50;99.90;;;;;;6148451;23;20494;-75
2023/05/03 09:16:27;;;;;;;8.87;8.07;;;18.80;99.90;;;;;;6146648;23;20444;-76
2023/05/03 09:18:59;;;;;;;8.77;8.00;;;19.00;99.90;;;;;;6143122;23;20467;-75
2023/05/03 09:21:26;;;;;;;9.50;8.80;;;19.30;99.90;;;;;;6134363;23;20463;-75
2023/05/03 09:23:54;;;;;;;8.70;7.97;;;19.20;99.90;;;;;;6145159;23;20455;-75
2023/05/03 09:26:28;;;;;;;9.20;8.50;;;19.30;99.90;;;;;;6147689;23;20935;-76
2023/05/03 09:28:57;;;;;;;7.70;7.10;;;19.80;99.90;;;;;;6145805;23;21021;-76
2023/05/03 09:31:24;;;;;;;8.67;7.97;;;20.30;99.90;;;;;;6143764;23;20456;-75
2023/05/03 09:33:52;;;;;;;8.77;7.97;;;20.90;99.90;;;;;;6148011;23;20442;-76
2023/05/03 09:36:19;;;;;;;9.00;8.40;;;21.30;99.90;;;;;;6149556;23;20452;-76
2023/05/03 09:38:46;;;;;;;8.47;7.73;;;21.60;99.90;;;;;;6147843;23;20452;-76
2023/05/03 09:41:14;;;;;;;8.37;7.77;;;21.70;99.90;;;;;;6143032;23;20490;-75
2023/05/03 09:43:54;;;;;;;9.30;8.60;;;21.80;99.90;;;;;;6148366;23;20515;-76
2023/05/03 09:46:23;;;;;;;8.63;7.87;;;22.00;99.90;;;;;;6146014;23;20525;-76
2023/05/03 09:48:53;;;;;;;7.90;7.37;;;22.20;99.90;;;;;;6145435;23;20461;-77
2023/05/03 09:51:21;;;;;;;8.40;7.60;;;22.10;99.90;;;;;;6146852;23;20469;-76
2023/05/03 09:53:49;;;;;;;8.10;7.40;;;22.00;99.90;;;;;;6143564;23;20435;-77
2023/05/03 09:56:19;;;;;;;8.80;8.10;;;22.10;99.90;;;;;;6146882;23;20429;-77
2023/05/03 09:58:46;;;;;;;9.00;8.30;;;22.20;99.90;;;;;;6143763;23;20454;-76
2023/05/03 10:01:14;;;;;;;9.93;9.13;;;22.00;99.90;;;;;;6141936;23;20432;-77
2023/05/03 10:03:43;;;;;;;8.77;8.17;;;22.00;99.90;;;;;;6147678;23;20910;-76
2023/05/03 10:06:23;;;;;;;9.10;8.40;;;21.90;99.90;;;;;;6147672;23;20427;-75
2023/05/03 10:08:54;;;;;;;9.97;9.10;;;22.00;99.90;;;;;;6142696;23;20947;-74
2023/05/03 10:11:26;;;;;;;8.73;8.10;;;21.50;99.90;;;;;;6147712;23;20436;-84
2023/05/03 10:13:53;;;;;;;8.80;8.10;;;20.80;99.90;;;;;;6142407;23;20836;-81
2023/05/03 10:16:25;;;;;;;8.70;8.00;;;21.00;99.90;;;;;;6146039;23;20460;-77
2023/05/03 10:18:59;;;;;;;8.53;7.73;;;21.60;99.90;;;;;;6143735;23;20464;-75
2023/05/03 10:21:35;;;;;;;8.90;8.00;;;22.40;99.90;;;;;;6146463;23;20480;-75
2023/05/03 10:24:13;;;;;;;8.17;7.47;;;23.20;99.90;;;;;;6148963;23;20431;-83
2023/05/03 10:26:42;;;;;;;7.90;7.30;;;23.40;99.20;;;;;;6143866;23;20452;-80
2023/05/03 10:29:48;;;;;;;7.70;7.13;;;23.60;97.90;;;;;;6143076;23;20454;-76
2023/05/03 10:32:32;;;;;;;7.20;6.60;;;23.90;97.10;;;;;;6149746;23;20848;-76
2023/05/03 10:35:01;;;;;;;6.73;6.13;;;24.30;97.60;;;;;;6143813;23;20421;-76
2023/05/03 10:37:28;;;;;;;6.73;6.23;;;24.90;97.40;;;;;;6148057;23;20453;-77
2023/05/03 10:39:55;;;;;;;6.57;6.13;;;25.50;96.30;;;;;;6144417;23;20462;-77
2023/05/03 10:42:25;;;;;;;6.07;5.73;;;26.00;94.60;;;;;;6146502;23;20441;-78
2023/05/03 10:44:53;;;;;;;6.93;6.50;;;26.60;93.10;;;;;;6143843;23;20468;-77
2023/05/03 10:47:22;;;;;;;7.20;6.60;;;27.00;91.80;;;;;;6145144;23;20457;-76
2023/05/03 10:50:25;;;;;;;6.53;6.00;;;26.80;90.00;;;;;;6135105;23;20449;-75
2023/05/03 10:52:53;;;;;;;7.10;6.60;;;26.80;90.60;;;;;;6140637;23;20547;-76
2023/05/03 10:55:23;;;;;;;7.93;7.13;;;26.30;88.80;;;;;;6145979;23;20468;-77
2023/05/03 10:57:55;;;;;;;9.47;7.87;;;26.20;88.70;;;;;;6140884;23;20457;-76
2023/05/03 11:00:27;;;;;;;5.70;5.20;;;25.30;89.60;;;;;;6135590;23;20478;-76
2023/05/03 11:03:13;;;;;;;7.17;6.67;;;25.00;90.00;;;;;;6148760;23;20428;-76
2023/05/03 11:05:41;;;;;;;5.40;4.80;;;25.00;89.00;;;;;;6144114;23;20532;-76
2023/05/03 11:08:11;;;;;;;5.60;5.10;;;25.20;90.20;;;;;;6146519;23;20487;-79
2023/05/03 11:10:38;;;;;;;6.50;6.00;;;25.30;88.20;;;;;;6148147;23;20440;-75
2023/05/03 11:13:07;;;;;;;6.10;5.53;;;25.30;87.80;;;;;;6147812;23;20461;-75
2023/05/03 11:15:35;;;;;;;5.10;4.77;;;25.20;88.10;;;;;;6146321;23;20432;-74
2023/05/03 11:18:02;;;;;;;6.13;5.53;;;25.40;85.40;;;;;;6145107;23;20832;-75
2023/05/03 11:20:30;;;;;;;5.43;4.93;;;25.70;84.10;;;;;;6142417;23;20512;-75
2023/05/03 11:22:58;;;;;;;5.63;5.20;;;25.90;84.70;;;;;;6140236;23;20435;-75
2023/05/03 11:25:25;;;;;;;5.70;5.20;;;26.00;82.30;;;;;;6144811;23;21005;-76
2023/05/03 11:27:53;;;;;;;5.80;5.30;;;25.90;80.80;;;;;;6149956;23;20460;-74
2023/05/03 11:30:21;;;;;;;5.27;4.87;;;25.40;81.30;;;;;;6136576;23;20431;-74
2023/05/03 11:32:49;;;;;;;5.70;5.30;;;25.50;83.00;;;;;;6136089;23;20496;-74
2023/05/03 11:35:22;;;;;;;5.67;5.20;;;26.00;83.60;;;;;;6143569;23;20429;-76
2023/05/03 11:37:49;;;;;;;4.30;4.00;;;26.30;83.00;;;;;;6145437;23;20548;-76
2023/05/03 11:40:17;;;;;;;6.00;5.60;;;26.80;82.60;;;;;;6138443;23;20465;-76
2023/05/03 11:42:52;;;;;;;6.03;5.60;;;27.20;76.00;;;;;;6146263;23;20494;-76
2023/05/03 11:45:22;;;;;;;6.00;5.60;;;26.80;76.30;;;;;;6139808;23;20468;-76
2023/05/03 11:47:49;;;;;;;5.83;5.43;;;26.20;76.50;;;;;;6144629;23;20456;-73
2023/05/03 11:50:17;;;;;;;5.70;5.20;;;25.70;77.70;;;;;;6144342;23;20437;-73
2023/05/03 11:52:45;;;;;;;5.90;5.03;;;25.40;77.90;;;;;;6143499;23;20551;-73
2023/05/03 11:55:12;;;;;;;5.47;5.00;;;25.40;75.10;;;;;;6145718;23;20436;-71
2023/05/03 11:57:39;;;;;;;6.53;6.03;;;25.40;77.60;;;;;;6142662;23;20462;-71
2023/05/03 12:00:17;;;;;;;5.43;5.03;;;25.80;77.30;;;;;;6139415;23;21451;-73
2023/05/03 12:02:48;;;;;;;6.50;6.00;;;25.40;78.40;;;;;;6134790;23;20426;-71
2023/05/03 12:05:17;;;;;;;5.30;4.90;;;24.60;77.60;;;;;;6136462;23;20436;-71
2023/05/03 12:07:45;;;;;;;5.43;5.07;;;24.30;81.70;;;;;;6130051;23;20450;-71
2023/05/03 12:10:15;;;;;;;5.30;4.87;;;25.00;81.20;;;;;;6130011;23;20444;-70
2023/05/03 12:12:52;;;;;;;5.50;5.10;;;25.50;78.90;;;;;;6135694;23;20465;-77
2023/05/03 12:15:30;;;;;;;5.10;4.67;;;25.80;77.80;;;;;;6139795;23;20436;-77
2023/05/03 12:18:00;;;;;;;5.03;4.70;;;25.70;76.00;;;;;;6128890;23;20456;-73
2023/05/03 12:20:29;;;;;;;4.40;4.10;;;24.70;74.70;;;;;;6128668;23;20442;-78
2023/05/03 12:23:01;;;;;;;4.07;3.77;;;24.00;76.40;;;;;;6133159;23;20486;-77
2023/05/03 12:25:29;;;;;;;4.53;4.20;;;24.20;76.60;;;;;;6134026;23;20433;-76
2023/05/03 12:27:58;;;;;;;3.53;3.33;;;24.70;76.70;;;;;;6135564;23;20459;-75
2023/05/03 12:30:26;;;;;;;4.10;3.70;;;25.40;75.10;;;;;;6133220;23;20873;-76
2023/05/03 12:32:53;;;;;;;4.50;4.10;;;25.90;70.20;;;;;;6135741;23;20504;-75
2023/05/03 12:35:22;;;;;;;3.50;3.20;;;26.40;71.90;;;;;;6136344;23;20433;-75
2023/05/03 12:37:50;;;;;;;3.83;3.53;;;26.70;72.20;;;;;;6144202;23;20452;-75
2023/05/03 12:40:19;;;;;;;4.13;3.73;;;27.10;70.30;;;;;;6132267;23;20436;-75
2023/05/03 12:42:46;;;;;;;3.90;3.60;;;27.60;68.70;;;;;;6137069;23;20432;-75
2023/05/03 12:45:13;;;;;;;3.47;3.27;;;28.10;66.40;;;;;;6133950;23;20544;-75
2023/05/03 12:47:42;;;;;;;4.20;3.90;;;28.50;64.50;;;;;;6145311;23;20455;-74
2023/05/03 12:50:11;;;;;;;4.20;3.90;;;28.80;64.50;;;;;;6137442;23;20465;-75